Celebrity Equinox — 9HXD9 — position and weather

sailwx.info

Track history (hours):
 
Tides and Currents Weather Stations Pressure Air Temp Water Temp Dewpoint Dewpoint Depression Visibility Wind Speed Wind Dir Waves Ship Positions

Celebrity Equinox

Last reported at 2017-Jan-19 10:00 UTC. Time now 2017-Jan-19 21:22 UTC.
Position N 22°30' W 082°24'.

Length 316 m; draft 8.6 m.

Type: Passenger vessel. MMSI: 249667000.

Wind from 100 at 16 knots

Barometer 1013.0 mb
Visibility: greater than 5.4 NM
Water temperature 25.6 ° C

Date/timePositionNaut miles runAvg speedWind from/ knotsBaromVisibWave heightAir tempDewpointWater temp
2017-Jan-19 10:00N 22°30' W 082°24'28024.4 100 / 161013.0 5.4 25.6
2017-Jan-18 22:33N 20°33' W 086°57'5 4.5
2017-Jan-18 21:32N 20°29' W 086°59'0 0.0
2017-Jan-18 20:31N 20°29' W 086°59'0 0.0
2017-Jan-18 19:31N 20°29' W 086°59'0 0.0
2017-Jan-18 18:31N 20°29' W 086°59'0 0.0
2017-Jan-18 17:32N 20°29' W 086°59'0 0.0
2017-Jan-18 16:33N 20°29' W 086°59'0 0.0
2017-Jan-18 15:33N 20°29' W 086°59'0 0.0
2017-Jan-18 14:32N 20°29' W 086°59'0 0.0
2017-Jan-18 13:23N 20°29' W 086°59'0 0.0
2017-Jan-18 12:32N 20°29' W 086°59'0 0.0
2017-Jan-18 11:31N 20°29' W 086°59'0 0.0
2017-Jan-18 10:31N 20°29' W 086°59'0 0.0
2017-Jan-18 09:33N 20°29' W 086°59'0 0.0
2017-Jan-18 08:33N 20°29' W 086°59'0 0.0
2017-Jan-18 07:29N 20°29' W 086°59'0 0.0
2017-Jan-18 06:32N 20°29' W 086°59'0 0.0
2017-Jan-18 05:28N 20°29' W 086°59'0 0.0
2017-Jan-18 04:31N 20°29' W 086°59'0 0.0
2017-Jan-18 03:31N 20°29' W 086°59'0 0.0
2017-Jan-18 02:33N 20°29' W 086°59'0 0.0
2017-Jan-18 01:33N 20°29' W 086°59'0 0.0
2017-Jan-18 00:29N 20°29' W 086°59'0 0.0
2017-Jan-17 23:32N 20°29' W 086°59'0 0.0
2017-Jan-17 22:31N 20°29' W 086°59'0 0.0
2017-Jan-17 21:31N 20°29' W 086°59'0 0.0
2017-Jan-17 20:31N 20°29' W 086°59'0 0.0
2017-Jan-17 19:30N 20°29' W 086°59'0 0.0
2017-Jan-17 18:33N 20°29' W 086°59'0 0.1
2017-Jan-17 17:33N 20°29' W 086°59'8 8.1
2017-Jan-17 16:34N 20°23' W 087°05'11417.3
2017-Jan-17 10:00N 19°06' W 085°36'24819.1 120 / 231014.0 5.4 27.0
2017-Jan-16 21:00N 16°18' W 082°24'15419.2 070 / 231011.0 5.4 28.0
2017-Jan-16 13:00N 13°48' W 081°48'243 9.0 100 / 321011.0 5.4 27.0
2017-Jan-15 10:00N 09°48' W 082°30'39111.2 200 / 211010.0 5.4 24.0
2017-Jan-13 23:00N 10°12' W 075°54'17 1.3 030 / 361008.0 5.4 26.0
2017-Jan-13 10:00N 10°24' W 075°42'21716.7 050 / 441006.0 2.2 25.0
2017-Jan-12 21:00N 13°30' W 077°36'37717.9 050 / 411009.0 5.4 27.0
2017-Jan-12 00:00N 18°48' W 081°06'78 5.2 060 / 381012.0 5.4 27.0
2017-Jan-11 09:00N 19°42' W 082°06'6722.3 060 / 251015.0 26.0
2017-Jan-11 06:00N 20°18' W 083°06'11523.0 050 / 321017.0
2017-Jan-11 01:00N 21°30' W 084°42'22814.2 070 / 301018.0 5.4 25.0
2017-Jan-10 09:00N 24°06' W 081°42'12514.8 050 / 201023.0 5.4 26.0
2017-Jan-10 00:33N 25°31' W 080°01'1414.0
2017-Jan-09 23:34N 25°45' W 080°00'3 4.7
2017-Jan-09 23:00N 25°42' W 080°00'1637.3 060 / 211027.0 5.4 19.0
2017-Jan-09 22:34N 25°58' W 080°02'9 8.8
2017-Jan-09 21:33N 26°05' W 080°07'0 0.3
2017-Jan-09 20:33N 26°05' W 080°07'0 0.0
2017-Jan-09 19:32N 26°05' W 080°07'0 0.0
2017-Jan-09 18:32N 26°05' W 080°07'0 0.0
2017-Jan-09 17:28N 26°05' W 080°07'0 0.0
2017-Jan-09 16:31N 26°05' W 080°07'0 0.0
2017-Jan-09 15:31N 26°05' W 080°07'0 0.0
2017-Jan-09 14:33N 26°05' W 080°07'0 0.0
2017-Jan-09 13:30N 26°05' W 080°07'0 0.0
2017-Jan-09 12:33N 26°05' W 080°07'0 0.2
2017-Jan-09 11:33N 26°05' W 080°07'7 7.2
2017-Jan-09 10:33N 26°01' W 080°01'1933.2
2017-Jan-09 10:00N 25°42' W 080°00'   080 / 401025.0 5.4 25.0
Track history (hours):
 
Tides and Currents Weather Stations Pressure Air Temp Water Temp Dewpoint Dewpoint Depression Visibility Wind Speed Wind Dir Waves Ship Positions

Celebrity Equinox

Last reported at 2017-Jan-19 10:00 UTC. Time now 2017-Jan-19 21:22 UTC.
Position N 22°30' W 082°24'.

Length 316 m; draft 8.6 m.

Type: Passenger vessel. MMSI: 249667000.

Wind from 100 at 16 knots

Barometer 1013.0 mb
Visibility: greater than 5.4 NM
Water temperature 25.6 ° C

Date/timePositionNaut miles runAvg speedWind from/ knotsBaromVisibWave heightAir tempDewpointWater temp
2017-Jan-19 10:00N 22°30' W 082°24'28024.4 100 / 161013.0 5.4 25.6
2017-Jan-18 22:33N 20°33' W 086°57'5 4.5
2017-Jan-18 21:32N 20°29' W 086°59'0 0.0
2017-Jan-18 20:31N 20°29' W 086°59'0 0.0
2017-Jan-18 19:31N 20°29' W 086°59'0 0.0
2017-Jan-18 18:31N 20°29' W 086°59'0 0.0
2017-Jan-18 17:32N 20°29' W 086°59'0 0.0
2017-Jan-18 16:33N 20°29' W 086°59'0 0.0
2017-Jan-18 15:33N 20°29' W 086°59'0 0.0
2017-Jan-18 14:32N 20°29' W 086°59'0 0.0
2017-Jan-18 13:23N 20°29' W 086°59'0 0.0
2017-Jan-18 12:32N 20°29' W 086°59'0 0.0
2017-Jan-18 11:31N 20°29' W 086°59'0 0.0
2017-Jan-18 10:31N 20°29' W 086°59'0 0.0
2017-Jan-18 09:33N 20°29' W 086°59'0 0.0
2017-Jan-18 08:33N 20°29' W 086°59'0 0.0
2017-Jan-18 07:29N 20°29' W 086°59'0 0.0
2017-Jan-18 06:32N 20°29' W 086°59'0 0.0
2017-Jan-18 05:28N 20°29' W 086°59'0 0.0
2017-Jan-18 04:31N 20°29' W 086°59'0 0.0
2017-Jan-18 03:31N 20°29' W 086°59'0 0.0
2017-Jan-18 02:33N 20°29' W 086°59'0 0.0
2017-Jan-18 01:33N 20°29' W 086°59'0 0.0
2017-Jan-18 00:29N 20°29' W 086°59'0 0.0
2017-Jan-17 23:32N 20°29' W 086°59'0 0.0
2017-Jan-17 22:31N 20°29' W 086°59'0 0.0
2017-Jan-17 21:31N 20°29' W 086°59'0 0.0
2017-Jan-17 20:31N 20°29' W 086°59'0 0.0
2017-Jan-17 19:30N 20°29' W 086°59'0 0.0
2017-Jan-17 18:33N 20°29' W 086°59'0 0.1
2017-Jan-17 17:33N 20°29' W 086°59'8 8.1
2017-Jan-17 16:34N 20°23' W 087°05'11417.3
2017-Jan-17 10:00N 19°06' W 085°36'24819.1 120 / 231014.0 5.4 27.0
2017-Jan-16 21:00N 16°18' W 082°24'15419.2 070 / 231011.0 5.4 28.0
2017-Jan-16 13:00N 13°48' W 081°48'243 9.0 100 / 321011.0 5.4 27.0
2017-Jan-15 10:00N 09°48' W 082°30'39111.2 200 / 211010.0 5.4 24.0
2017-Jan-13 23:00N 10°12' W 075°54'17 1.3 030 / 361008.0 5.4 26.0
2017-Jan-13 10:00N 10°24' W 075°42'21716.7 050 / 441006.0 2.2 25.0
2017-Jan-12 21:00N 13°30' W 077°36'37717.9 050 / 411009.0 5.4 27.0
2017-Jan-12 00:00N 18°48' W 081°06'78 5.2 060 / 381012.0 5.4 27.0
2017-Jan-11 09:00N 19°42' W 082°06'6722.3 060 / 251015.0 26.0
2017-Jan-11 06:00N 20°18' W 083°06'11523.0 050 / 321017.0
2017-Jan-11 01:00N 21°30' W 084°42'22814.2 070 / 301018.0 5.4 25.0
2017-Jan-10 09:00N 24°06' W 081°42'12514.8 050 / 201023.0 5.4 26.0
2017-Jan-10 00:33N 25°31' W 080°01'1414.0
2017-Jan-09 23:34N 25°45' W 080°00'3 4.7
2017-Jan-09 23:00N 25°42' W 080°00'1637.3 060 / 211027.0 5.4 19.0
2017-Jan-09 22:34N 25°58' W 080°02'9 8.8
2017-Jan-09 21:33N 26°05' W 080°07'0 0.3
2017-Jan-09 20:33N 26°05' W 080°07'0 0.0
2017-Jan-09 19:32N 26°05' W 080°07'0 0.0
2017-Jan-09 18:32N 26°05' W 080°07'0 0.0
2017-Jan-09 17:28N 26°05' W 080°07'0 0.0
2017-Jan-09 16:31N 26°05' W 080°07'0 0.0
2017-Jan-09 15:31N 26°05' W 080°07'0 0.0
2017-Jan-09 14:33N 26°05' W 080°07'0 0.0
2017-Jan-09 13:30N 26°05' W 080°07'0 0.0
2017-Jan-09 12:33N 26°05' W 080°07'0 0.2
2017-Jan-09 11:33N 26°05' W 080°07'7 7.2
2017-Jan-09 10:33N 26°01' W 080°01'1933.2
2017-Jan-09 10:00N 25°42' W 080°00'   080 / 401025.0 5.4 25.0

Dump ship's entire track history